Caldazinha, Brazil
Current Conditions -  °F | °C
As of 12:00 AM on Sunday 21 Dec 2014 (Local Time) from SBGO Reporting Station
Broken Clouds Broken Clouds  
Wind Chill: 22°   Ceiling: 10000
Heat Index: 22°   Visibility: 6mi
Dew Point: 19°   Wind: 5mph
Humidity: 83%   Direction: 340°NNW
Pressure: 30"   Gusts: NA
Location:  16.71°S, 49°W
Report Text: SBGO 210200Z 34004KT 9999 FEW035 BKN100 22/19 Q1016
Loading
Personal Weather Stations






























Interactive Weather Map New forecast layout! Learn more

10-Day Weather Forecast

Advertisements
Track Severe Weather on mobile